sensor_id;sensor_type;location;lat;lon;timestamp;P1;durP1;ratioP1;P2;durP2;ratioP2
8857;SDS011;4465;50.904;4.696;2023-05-10T00:01:04;27.13;;;9.38;;
8857;SDS011;4465;50.904;4.696;2023-05-10T00:03:30;23.13;;;8.38;;
8857;SDS011;4465;50.904;4.696;2023-05-10T00:05:56;22.55;;;9.20;;
8857;SDS011;4465;50.904;4.696;2023-05-10T00:08:22;25.60;;;8.52;;
8857;SDS011;4465;50.904;4.696;2023-05-10T00:10:48;22.58;;;8.50;;
8857;SDS011;4465;50.904;4.696;2023-05-10T00:13:14;30.42;;;7.97;;
8857;SDS011;4465;50.904;4.696;2023-05-10T00:15:40;22.08;;;8.02;;
8857;SDS011;4465;50.904;4.696;2023-05-10T00:18:06;18.88;;;7.72;;
8857;SDS011;4465;50.904;4.696;2023-05-10T00:20:32;19.48;;;8.32;;
8857;SDS011;4465;50.904;4.696;2023-05-10T00:23:01;21.05;;;8.20;;
8857;SDS011;4465;50.904;4.696;2023-05-10T00:25:29;23.48;;;7.57;;
8857;SDS011;4465;50.904;4.696;2023-05-10T00:27:59;21.95;;;7.68;;
8857;SDS011;4465;50.904;4.696;2023-05-10T00:30:26;24.85;;;8.43;;
8857;SDS011;4465;50.904;4.696;2023-05-10T00:32:54;20.05;;;8.20;;
8857;SDS011;4465;50.904;4.696;2023-05-10T00:35:20;32.13;;;10.68;;
8857;SDS011;4465;50.904;4.696;2023-05-10T00:37:46;23.08;;;8.30;;
8857;SDS011;4465;50.904;4.696;2023-05-10T00:40:13;30.02;;;10.20;;
8857;SDS011;4465;50.904;4.696;2023-05-10T00:42:39;26.58;;;9.18;;
8857;SDS011;4465;50.904;4.696;2023-05-10T00:45:05;22.33;;;8.52;;
8857;SDS011;4465;50.904;4.696;2023-05-10T00:47:31;24.65;;;9.07;;
8857;SDS011;4465;50.904;4.696;2023-05-10T00:49:58;27.13;;;9.45;;
8857;SDS011;4465;50.904;4.696;2023-05-10T00:54:52;30.02;;;10.00;;
8857;SDS011;4465;50.904;4.696;2023-05-10T00:57:19;27.35;;;9.73;;
8857;SDS011;4465;50.904;4.696;2023-05-10T00:59:46;26.30;;;10.25;;
8857;SDS011;4465;50.904;4.696;2023-05-10T01:02:14;32.47;;;10.68;;
8857;SDS011;4465;50.904;4.696;2023-05-10T01:04:40;31.80;;;10.40;;
8857;SDS011;4465;50.904;4.696;2023-05-10T01:07:06;26.75;;;9.95;;
8857;SDS011;4465;50.904;4.696;2023-05-10T01:09:35;23.23;;;10.40;;
8857;SDS011;4465;50.904;4.696;2023-05-10T01:12:01;24.38;;;9.35;;
8857;SDS011;4465;50.904;4.696;2023-05-10T01:14:28;24.50;;;10.38;;
8857;SDS011;4465;50.904;4.696;2023-05-10T01:16:54;25.48;;;10.77;;
8857;SDS011;4465;50.904;4.696;2023-05-10T01:19:26;29.35;;;10.32;;
8857;SDS011;4465;50.904;4.696;2023-05-10T01:30:08;33.38;;;11.68;;
8857;SDS011;4465;50.904;4.696;2023-05-10T01:32:45;21.33;;;9.90;;
8857;SDS011;4465;50.904;4.696;2023-05-10T01:38:32;27.02;;;10.68;;
8857;SDS011;4465;50.904;4.696;2023-05-10T01:46:32;27.23;;;10.90;;
8857;SDS011;4465;50.904;4.696;2023-05-10T01:49:10;35.05;;;11.50;;
8857;SDS011;4465;50.904;4.696;2023-05-10T01:51:48;26.75;;;11.82;;
8857;SDS011;4465;50.904;4.696;2023-05-10T01:54:17;30.73;;;11.70;;
8857;SDS011;4465;50.904;4.696;2023-05-10T01:56:46;33.85;;;11.18;;
8857;SDS011;4465;50.904;4.696;2023-05-10T01:59:20;32.13;;;11.98;;
8857;SDS011;4465;50.904;4.696;2023-05-10T02:01:47;34.20;;;11.98;;
8857;SDS011;4465;50.904;4.696;2023-05-10T02:04:16;33.33;;;12.02;;
8857;SDS011;4465;50.904;4.696;2023-05-10T02:06:44;33.95;;;12.13;;
8857;SDS011;4465;50.904;4.696;2023-05-10T02:09:13;36.50;;;12.88;;
8857;SDS011;4465;50.904;4.696;2023-05-10T02:11:41;31.23;;;12.20;;
8857;SDS011;4465;50.904;4.696;2023-05-10T02:14:09;28.17;;;12.13;;
8857;SDS011;4465;50.904;4.696;2023-05-10T02:16:37;32.63;;;11.85;;
8857;SDS011;4465;50.904;4.696;2023-05-10T02:19:04;33.05;;;12.98;;
8857;SDS011;4465;50.904;4.696;2023-05-10T02:21:33;31.50;;;13.45;;
8857;SDS011;4465;50.904;4.696;2023-05-10T02:24:00;33.93;;;12.50;;
8857;SDS011;4465;50.904;4.696;2023-05-10T02:26:32;31.30;;;12.18;;
8857;SDS011;4465;50.904;4.696;2023-05-10T02:29:01;32.85;;;12.77;;
8857;SDS011;4465;50.904;4.696;2023-05-10T02:31:31;32.15;;;13.00;;
8857;SDS011;4465;50.904;4.696;2023-05-10T02:33:58;30.08;;;12.80;;
8857;SDS011;4465;50.904;4.696;2023-05-10T02:36:26;32.42;;;13.15;;
8857;SDS011;4465;50.904;4.696;2023-05-10T02:38:59;32.22;;;13.10;;
8857;SDS011;4465;50.904;4.696;2023-05-10T02:41:27;36.00;;;13.45;;
8857;SDS011;4465;50.904;4.696;2023-05-10T02:43:56;36.38;;;13.10;;
8857;SDS011;4465;50.904;4.696;2023-05-10T02:46:25;34.55;;;12.73;;
8857;SDS011;4465;50.904;4.696;2023-05-10T02:48:50;34.20;;;13.05;;
8857;SDS011;4465;50.904;4.696;2023-05-10T02:51:16;35.55;;;14.25;;
8857;SDS011;4465;50.904;4.696;2023-05-10T02:53:49;36.92;;;13.43;;
8857;SDS011;4465;50.904;4.696;2023-05-10T02:56:28;34.90;;;13.52;;
8857;SDS011;4465;50.904;4.696;2023-05-10T02:59:00;34.60;;;13.85;;
8857;SDS011;4465;50.904;4.696;2023-05-10T03:01:26;31.67;;;12.50;;
8857;SDS011;4465;50.904;4.696;2023-05-10T03:03:54;36.00;;;12.65;;
8857;SDS011;4465;50.904;4.696;2023-05-10T03:06:20;34.53;;;13.23;;
8857;SDS011;4465;50.904;4.696;2023-05-10T03:08:49;28.83;;;12.07;;
8857;SDS011;4465;50.904;4.696;2023-05-10T03:16:45;28.10;;;12.00;;
8857;SDS011;4465;50.904;4.696;2023-05-10T03:19:27;35.75;;;11.93;;
8857;SDS011;4465;50.904;4.696;2023-05-10T03:21:59;34.72;;;12.63;;
8857;SDS011;4465;50.904;4.696;2023-05-10T03:24:29;30.88;;;12.70;;
8857;SDS011;4465;50.904;4.696;2023-05-10T03:26:56;29.60;;;12.57;;
8857;SDS011;4465;50.904;4.696;2023-05-10T03:29:27;35.35;;;11.82;;
8857;SDS011;4465;50.904;4.696;2023-05-10T03:31:58;26.35;;;11.20;;
8857;SDS011;4465;50.904;4.696;2023-05-10T03:34:25;39.80;;;11.95;;
8857;SDS011;4465;50.904;4.696;2023-05-10T03:36:51;32.50;;;12.60;;
8857;SDS011;4465;50.904;4.696;2023-05-10T03:39:17;29.92;;;9.68;;
8857;SDS011;4465;50.904;4.696;2023-05-10T03:41:43;25.77;;;10.05;;
8857;SDS011;4465;50.904;4.696;2023-05-10T03:44:09;24.70;;;9.75;;
8857;SDS011;4465;50.904;4.696;2023-05-10T03:46:35;35.50;;;10.77;;
8857;SDS011;4465;50.904;4.696;2023-05-10T03:49:03;35.17;;;10.32;;
8857;SDS011;4465;50.904;4.696;2023-05-10T03:51:29;35.25;;;9.80;;
8857;SDS011;4465;50.904;4.696;2023-05-10T03:53:56;35.30;;;10.23;;
8857;SDS011;4465;50.904;4.696;2023-05-10T03:56:22;37.58;;;11.98;;
8857;SDS011;4465;50.904;4.696;2023-05-10T03:58:48;32.70;;;10.38;;
8857;SDS011;4465;50.904;4.696;2023-05-10T04:01:14;39.50;;;11.60;;
8857;SDS011;4465;50.904;4.696;2023-05-10T04:03:40;37.60;;;11.35;;
8857;SDS011;4465;50.904;4.696;2023-05-10T04:06:08;49.58;;;14.60;;
8857;SDS011;4465;50.904;4.696;2023-05-10T04:08:37;54.35;;;14.80;;
8857;SDS011;4465;50.904;4.696;2023-05-10T04:11:06;42.30;;;14.60;;
8857;SDS011;4465;50.904;4.696;2023-05-10T04:13:33;44.95;;;14.10;;
8857;SDS011;4465;50.904;4.696;2023-05-10T04:16:00;51.53;;;14.55;;
8857;SDS011;4465;50.904;4.696;2023-05-10T04:18:26;42.25;;;14.63;;
8857;SDS011;4465;50.904;4.696;2023-05-10T04:20:54;51.80;;;14.75;;
8857;SDS011;4465;50.904;4.696;2023-05-10T04:23:20;52.85;;;15.25;;
8857;SDS011;4465;50.904;4.696;2023-05-10T04:25:48;51.30;;;14.48;;
8857;SDS011;4465;50.904;4.696;2023-05-10T04:28:16;54.17;;;14.98;;
8857;SDS011;4465;50.904;4.696;2023-05-10T04:30:42;54.15;;;16.30;;
8857;SDS011;4465;50.904;4.696;2023-05-10T04:33:08;58.50;;;16.55;;
8857;SDS011;4465;50.904;4.696;2023-05-10T04:35:34;69.68;;;16.65;;
8857;SDS011;4465;50.904;4.696;2023-05-10T04:38:00;63.72;;;17.25;;
8857;SDS011;4465;50.904;4.696;2023-05-10T04:40:26;78.00;;;17.27;;
8857;SDS011;4465;50.904;4.696;2023-05-10T04:42:54;75.05;;;18.23;;
8857;SDS011;4465;50.904;4.696;2023-05-10T04:45:27;68.93;;;17.75;;
8857;SDS011;4465;50.904;4.696;2023-05-10T04:47:53;63.55;;;19.85;;
8857;SDS011;4465;50.904;4.696;2023-05-10T04:50:24;78.93;;;18.25;;
8857;SDS011;4465;50.904;4.696;2023-05-10T04:52:52;67.40;;;18.80;;
8857;SDS011;4465;50.904;4.696;2023-05-10T04:55:21;84.80;;;18.65;;
8857;SDS011;4465;50.904;4.696;2023-05-10T04:57:47;106.40;;;20.35;;
8857;SDS011;4465;50.904;4.696;2023-05-10T05:00:13;71.65;;;18.92;;
8857;SDS011;4465;50.904;4.696;2023-05-10T05:02:41;68.07;;;18.80;;
8857;SDS011;4465;50.904;4.696;2023-05-10T05:05:09;75.93;;;19.58;;
8857;SDS011;4465;50.904;4.696;2023-05-10T05:07:35;75.80;;;19.80;;
8857;SDS011;4465;50.904;4.696;2023-05-10T05:10:01;112.30;;;20.42;;
8857;SDS011;4465;50.904;4.696;2023-05-10T05:12:30;86.60;;;20.35;;
8857;SDS011;4465;50.904;4.696;2023-05-10T05:14:58;100.40;;;20.05;;
8857;SDS011;4465;50.904;4.696;2023-05-10T05:17:24;101.82;;;20.60;;
8857;SDS011;4465;50.904;4.696;2023-05-10T05:19:50;89.50;;;20.02;;
8857;SDS011;4465;50.904;4.696;2023-05-10T05:22:16;91.80;;;21.23;;
8857;SDS011;4465;50.904;4.696;2023-05-10T05:24:42;86.45;;;20.23;;
8857;SDS011;4465;50.904;4.696;2023-05-10T05:27:11;93.10;;;20.63;;
8857;SDS011;4465;50.904;4.696;2023-05-10T05:29:37;74.68;;;20.70;;
8857;SDS011;4465;50.904;4.696;2023-05-10T05:32:05;100.20;;;21.40;;
8857;SDS011;4465;50.904;4.696;2023-05-10T05:34:31;103.53;;;22.35;;
8857;SDS011;4465;50.904;4.696;2023-05-10T05:36:57;91.55;;;21.67;;
8857;SDS011;4465;50.904;4.696;2023-05-10T05:39:23;80.57;;;19.77;;
8857;SDS011;4465;50.904;4.696;2023-05-10T05:41:48;83.80;;;20.45;;
8857;SDS011;4465;50.904;4.696;2023-05-10T05:44:17;87.18;;;20.95;;
8857;SDS011;4465;50.904;4.696;2023-05-10T05:46:43;83.63;;;20.65;;
8857;SDS011;4465;50.904;4.696;2023-05-10T05:49:09;79.72;;;20.92;;
8857;SDS011;4465;50.904;4.696;2023-05-10T05:51:35;91.43;;;21.58;;
8857;SDS011;4465;50.904;4.696;2023-05-10T05:54:01;80.35;;;20.45;;
8857;SDS011;4465;50.904;4.696;2023-05-10T05:56:29;93.05;;;20.05;;
8857;SDS011;4465;50.904;4.696;2023-05-10T05:59:00;81.43;;;21.50;;
8857;SDS011;4465;50.904;4.696;2023-05-10T06:01:28;91.25;;;21.58;;
8857;SDS011;4465;50.904;4.696;2023-05-10T06:03:54;86.50;;;20.27;;
8857;SDS011;4465;50.904;4.696;2023-05-10T06:06:20;85.00;;;21.13;;
8857;SDS011;4465;50.904;4.696;2023-05-10T06:08:48;83.60;;;20.08;;
8857;SDS011;4465;50.904;4.696;2023-05-10T06:11:14;79.82;;;20.00;;
8857;SDS011;4465;50.904;4.696;2023-05-10T06:13:40;79.20;;;22.27;;
8857;SDS011;4465;50.904;4.696;2023-05-10T06:16:07;84.82;;;21.52;;
8857;SDS011;4465;50.904;4.696;2023-05-10T06:18:33;82.25;;;20.67;;
8857;SDS011;4465;50.904;4.696;2023-05-10T06:21:02;84.95;;;19.42;;
8857;SDS011;4465;50.904;4.696;2023-05-10T06:23:28;82.25;;;21.65;;
8857;SDS011;4465;50.904;4.696;2023-05-10T06:25:54;82.57;;;21.85;;
8857;SDS011;4465;50.904;4.696;2023-05-10T06:28:20;83.72;;;20.60;;
8857;SDS011;4465;50.904;4.696;2023-05-10T06:30:46;68.80;;;20.30;;
8857;SDS011;4465;50.904;4.696;2023-05-10T06:33:15;67.57;;;20.00;;
8857;SDS011;4465;50.904;4.696;2023-05-10T06:35:43;72.72;;;20.33;;
8857;SDS011;4465;50.904;4.696;2023-05-10T06:38:11;71.80;;;20.15;;
8857;SDS011;4465;50.904;4.696;2023-05-10T06:40:43;69.68;;;20.05;;
8857;SDS011;4465;50.904;4.696;2023-05-10T06:43:11;74.75;;;19.65;;
8857;SDS011;4465;50.904;4.696;2023-05-10T06:45:37;77.40;;;20.45;;
8857;SDS011;4465;50.904;4.696;2023-05-10T06:48:03;65.05;;;19.83;;
8857;SDS011;4465;50.904;4.696;2023-05-10T06:50:31;74.85;;;20.27;;
8857;SDS011;4465;50.904;4.696;2023-05-10T06:53:00;64.45;;;19.63;;
8857;SDS011;4465;50.904;4.696;2023-05-10T06:55:29;72.90;;;20.92;;
8857;SDS011;4465;50.904;4.696;2023-05-10T06:57:55;75.35;;;21.15;;
8857;SDS011;4465;50.904;4.696;2023-05-10T07:00:23;79.10;;;20.48;;
8857;SDS011;4465;50.904;4.696;2023-05-10T07:02:49;71.03;;;20.63;;
8857;SDS011;4465;50.904;4.696;2023-05-10T07:05:15;73.00;;;21.60;;
8857;SDS011;4465;50.904;4.696;2023-05-10T07:07:43;64.45;;;19.55;;
8857;SDS011;4465;50.904;4.696;2023-05-10T07:10:09;60.80;;;19.00;;
8857;SDS011;4465;50.904;4.696;2023-05-10T07:12:37;57.88;;;17.02;;
8857;SDS011;4465;50.904;4.696;2023-05-10T07:15:05;29.63;;;10.38;;
8857;SDS011;4465;50.904;4.696;2023-05-10T07:17:32;27.90;;;9.55;;
8857;SDS011;4465;50.904;4.696;2023-05-10T07:19:58;21.85;;;7.93;;
8857;SDS011;4465;50.904;4.696;2023-05-10T07:22:25;22.30;;;8.32;;
8857;SDS011;4465;50.904;4.696;2023-05-10T07:24:56;21.85;;;8.55;;
8857;SDS011;4465;50.904;4.696;2023-05-10T07:27:24;18.98;;;7.43;;
8857;SDS011;4465;50.904;4.696;2023-05-10T07:29:53;18.77;;;7.93;;
8857;SDS011;4465;50.904;4.696;2023-05-10T07:32:20;21.95;;;8.13;;
8857;SDS011;4465;50.904;4.696;2023-05-10T07:34:46;17.90;;;7.27;;
8857;SDS011;4465;50.904;4.696;2023-05-10T07:37:14;19.58;;;7.57;;
8857;SDS011;4465;50.904;4.696;2023-05-10T07:39:40;17.70;;;6.32;;
8857;SDS011;4465;50.904;4.696;2023-05-10T07:42:06;15.10;;;6.30;;
8857;SDS011;4465;50.904;4.696;2023-05-10T07:44:34;13.75;;;5.78;;
8857;SDS011;4465;50.904;4.696;2023-05-10T07:47:00;15.80;;;6.57;;
8857;SDS011;4465;50.904;4.696;2023-05-10T07:49:26;15.00;;;6.15;;
8857;SDS011;4465;50.904;4.696;2023-05-10T07:51:52;19.80;;;6.32;;
8857;SDS011;4465;50.904;4.696;2023-05-10T07:54:18;15.07;;;6.65;;
8857;SDS011;4465;50.904;4.696;2023-05-10T07:56:44;19.67;;;6.97;;
8857;SDS011;4465;50.904;4.696;2023-05-10T07:59:15;19.65;;;7.63;;
8857;SDS011;4465;50.904;4.696;2023-05-10T08:01:44;19.95;;;7.53;;
8857;SDS011;4465;50.904;4.696;2023-05-10T08:04:10;21.80;;;7.88;;
8857;SDS011;4465;50.904;4.696;2023-05-10T08:06:36;23.85;;;7.00;;
8857;SDS011;4465;50.904;4.696;2023-05-10T08:09:02;26.33;;;8.27;;
8857;SDS011;4465;50.904;4.696;2023-05-10T08:11:28;22.85;;;8.95;;
8857;SDS011;4465;50.904;4.696;2023-05-10T08:13:56;24.40;;;9.35;;
8857;SDS011;4465;50.904;4.696;2023-05-10T08:16:22;30.20;;;9.70;;
8857;SDS011;4465;50.904;4.696;2023-05-10T08:18:53;25.50;;;9.38;;
8857;SDS011;4465;50.904;4.696;2023-05-10T08:21:20;37.08;;;10.43;;
8857;SDS011;4465;50.904;4.696;2023-05-10T08:23:46;31.17;;;11.73;;
8857;SDS011;4465;50.904;4.696;2023-05-10T08:26:16;31.10;;;10.77;;
8857;SDS011;4465;50.904;4.696;2023-05-10T08:28:42;33.95;;;10.68;;
8857;SDS011;4465;50.904;4.696;2023-05-10T08:31:13;33.10;;;10.93;;
8857;SDS011;4465;50.904;4.696;2023-05-10T08:33:42;29.30;;;10.13;;
8857;SDS011;4465;50.904;4.696;2023-05-10T08:36:08;26.92;;;9.82;;
8857;SDS011;4465;50.904;4.696;2023-05-10T08:38:39;32.55;;;10.20;;
8857;SDS011;4465;50.904;4.696;2023-05-10T08:41:05;28.08;;;10.68;;
8857;SDS011;4465;50.904;4.696;2023-05-10T08:43:31;28.92;;;10.88;;
8857;SDS011;4465;50.904;4.696;2023-05-10T08:45:59;26.00;;;8.40;;
8857;SDS011;4465;50.904;4.696;2023-05-10T08:48:30;30.60;;;9.63;;
8857;SDS011;4465;50.904;4.696;2023-05-10T08:50:58;28.20;;;9.95;;
8857;SDS011;4465;50.904;4.696;2023-05-10T08:53:27;18.38;;;8.85;;
8857;SDS011;4465;50.904;4.696;2023-05-10T08:55:55;26.77;;;9.50;;
8857;SDS011;4465;50.904;4.696;2023-05-10T08:58:26;22.35;;;7.88;;
8857;SDS011;4465;50.904;4.696;2023-05-10T09:00:52;21.75;;;8.32;;
8857;SDS011;4465;50.904;4.696;2023-05-10T09:03:21;26.23;;;7.95;;
8857;SDS011;4465;50.904;4.696;2023-05-10T09:05:47;23.67;;;7.55;;
8857;SDS011;4465;50.904;4.696;2023-05-10T09:08:14;21.92;;;8.45;;
8857;SDS011;4465;50.904;4.696;2023-05-10T09:10:43;21.48;;;8.82;;
8857;SDS011;4465;50.904;4.696;2023-05-10T09:13:12;20.98;;;8.20;;
8857;SDS011;4465;50.904;4.696;2023-05-10T09:15:43;28.83;;;8.52;;
8857;SDS011;4465;50.904;4.696;2023-05-10T09:18:10;24.63;;;9.40;;
8857;SDS011;4465;50.904;4.696;2023-05-10T09:20:38;21.58;;;8.23;;
8857;SDS011;4465;50.904;4.696;2023-05-10T09:23:04;23.33;;;8.50;;
8857;SDS011;4465;50.904;4.696;2023-05-10T09:25:33;21.30;;;8.38;;
8857;SDS011;4465;50.904;4.696;2023-05-10T09:27:59;20.58;;;7.95;;
8857;SDS011;4465;50.904;4.696;2023-05-10T09:30:26;22.35;;;8.45;;
8857;SDS011;4465;50.904;4.696;2023-05-10T09:32:57;25.50;;;7.97;;
8857;SDS011;4465;50.904;4.696;2023-05-10T09:35:24;21.90;;;7.68;;
8857;SDS011;4465;50.904;4.696;2023-05-10T09:37:52;23.13;;;7.38;;
8857;SDS011;4465;50.904;4.696;2023-05-10T09:40:21;21.58;;;8.15;;
8857;SDS011;4465;50.904;4.696;2023-05-10T09:45:28;22.13;;;7.68;;
8857;SDS011;4465;50.904;4.696;2023-05-10T09:47:55;22.83;;;7.63;;
8857;SDS011;4465;50.904;4.696;2023-05-10T09:50:27;23.20;;;7.85;;
8857;SDS011;4465;50.904;4.696;2023-05-10T09:52:57;20.50;;;7.38;;
8857;SDS011;4465;50.904;4.696;2023-05-10T09:55:26;15.32;;;6.50;;
8857;SDS011;4465;50.904;4.696;2023-05-10T09:58:10;17.20;;;6.55;;
8857;SDS011;4465;50.904;4.696;2023-05-10T10:00:36;21.38;;;7.15;;
8857;SDS011;4465;50.904;4.696;2023-05-10T10:03:04;13.77;;;5.70;;
8857;SDS011;4465;50.904;4.696;2023-05-10T10:05:34;13.60;;;5.45;;
8857;SDS011;4465;50.904;4.696;2023-05-10T10:08:02;20.80;;;6.13;;
8857;SDS011;4465;50.904;4.696;2023-05-10T10:10:32;15.98;;;5.80;;
8857;SDS011;4465;50.904;4.696;2023-05-10T10:13:01;11.20;;;5.18;;
8857;SDS011;4465;50.904;4.696;2023-05-10T10:15:27;13.32;;;5.53;;
8857;SDS011;4465;50.904;4.696;2023-05-10T10:17:53;13.00;;;5.50;;
8857;SDS011;4465;50.904;4.696;2023-05-10T10:20:20;16.58;;;6.68;;
8857;SDS011;4465;50.904;4.696;2023-05-10T10:22:49;12.32;;;4.88;;
8857;SDS011;4465;50.904;4.696;2023-05-10T10:25:16;19.80;;;5.68;;
8857;SDS011;4465;50.904;4.696;2023-05-10T10:30:39;10.73;;;5.17;;
8857;SDS011;4465;50.904;4.696;2023-05-10T10:33:23;10.13;;;5.03;;
8857;SDS011;4465;50.904;4.696;2023-05-10T10:36:01;13.23;;;4.53;;
8857;SDS011;4465;50.904;4.696;2023-05-10T10:39:07;11.00;;;4.55;;
8857;SDS011;4465;50.904;4.696;2023-05-10T10:47:04;10.32;;;3.80;;
8857;SDS011;4465;50.904;4.696;2023-05-10T10:52:15;6.18;;;3.10;;
8857;SDS011;4465;50.904;4.696;2023-05-10T10:55:17;6.75;;;3.38;;
8857;SDS011;4465;50.904;4.696;2023-05-10T11:00:32;6.30;;;3.10;;
8857;SDS011;4465;50.904;4.696;2023-05-10T11:03:06;6.50;;;3.47;;
8857;SDS011;4465;50.904;4.696;2023-05-10T11:05:35;7.90;;;3.45;;
8857;SDS011;4465;50.904;4.696;2023-05-10T11:08:28;6.95;;;3.17;;
8857;SDS011;4465;50.904;4.696;2023-05-10T11:11:04;8.40;;;2.95;;
8857;SDS011;4465;50.904;4.696;2023-05-10T11:16:13;5.30;;;3.10;;
8857;SDS011;4465;50.904;4.696;2023-05-10T11:18:52;6.60;;;3.40;;
8857;SDS011;4465;50.904;4.696;2023-05-10T11:21:19;5.38;;;2.90;;
8857;SDS011;4465;50.904;4.696;2023-05-10T11:26:21;3.72;;;2.30;;
8857;SDS011;4465;50.904;4.696;2023-05-10T11:28:52;5.50;;;2.40;;
8857;SDS011;4465;50.904;4.696;2023-05-10T11:31:23;3.70;;;2.20;;
8857;SDS011;4465;50.904;4.696;2023-05-10T11:33:52;3.67;;;2.20;;
8857;SDS011;4465;50.904;4.696;2023-05-10T11:36:27;4.68;;;2.08;;
8857;SDS011;4465;50.904;4.696;2023-05-10T11:38:55;5.82;;;2.10;;
8857;SDS011;4465;50.904;4.696;2023-05-10T11:41:22;4.95;;;2.03;;
8857;SDS011;4465;50.904;4.696;2023-05-10T11:43:50;3.72;;;2.30;;
8857;SDS011;4465;50.904;4.696;2023-05-10T11:46:18;2.97;;;2.03;;
8857;SDS011;4465;50.904;4.696;2023-05-10T11:48:46;3.92;;;2.40;;
8857;SDS011;4465;50.904;4.696;2023-05-10T11:51:15;4.03;;;2.80;;
8857;SDS011;4465;50.904;4.696;2023-05-10T11:53:41;3.70;;;2.33;;
8857;SDS011;4465;50.904;4.696;2023-05-10T11:56:07;4.35;;;2.25;;
8857;SDS011;4465;50.904;4.696;2023-05-10T11:58:34;4.40;;;2.60;;
8857;SDS011;4465;50.904;4.696;2023-05-10T12:03:31;4.95;;;2.50;;
8857;SDS011;4465;50.904;4.696;2023-05-10T12:05:57;4.78;;;2.67;;
8857;SDS011;4465;50.904;4.696;2023-05-10T12:08:25;4.55;;;3.03;;
8857;SDS011;4465;50.904;4.696;2023-05-10T12:10:53;8.60;;;2.83;;
8857;SDS011;4465;50.904;4.696;2023-05-10T12:13:31;5.05;;;3.15;;
8857;SDS011;4465;50.904;4.696;2023-05-10T12:15:57;4.45;;;2.70;;
8857;SDS011;4465;50.904;4.696;2023-05-10T12:18:24;7.88;;;3.40;;
8857;SDS011;4465;50.904;4.696;2023-05-10T12:20:53;5.15;;;3.25;;
8857;SDS011;4465;50.904;4.696;2023-05-10T12:23:20;6.47;;;3.55;;
8857;SDS011;4465;50.904;4.696;2023-05-10T12:25:46;6.60;;;3.03;;
8857;SDS011;4465;50.904;4.696;2023-05-10T12:28:18;6.75;;;3.17;;
8857;SDS011;4465;50.904;4.696;2023-05-10T12:30:45;7.63;;;3.85;;
8857;SDS011;4465;50.904;4.696;2023-05-10T12:33:11;8.25;;;4.07;;
8857;SDS011;4465;50.904;4.696;2023-05-10T12:35:49;5.65;;;3.83;;
8857;SDS011;4465;50.904;4.696;2023-05-10T12:41:00;7.75;;;4.00;;
8857;SDS011;4465;50.904;4.696;2023-05-10T12:43:28;6.25;;;4.00;;
8857;SDS011;4465;50.904;4.696;2023-05-10T12:45:54;7.43;;;3.83;;
8857;SDS011;4465;50.904;4.696;2023-05-10T12:48:20;7.88;;;3.80;;
8857;SDS011;4465;50.904;4.696;2023-05-10T12:50:46;6.40;;;3.97;;
8857;SDS011;4465;50.904;4.696;2023-05-10T12:53:14;7.45;;;3.55;;
8857;SDS011;4465;50.904;4.696;2023-05-10T12:55:41;10.57;;;3.58;;
8857;SDS011;4465;50.904;4.696;2023-05-10T12:58:12;13.00;;;3.47;;
8857;SDS011;4465;50.904;4.696;2023-05-10T13:00:39;8.55;;;3.25;;
8857;SDS011;4465;50.904;4.696;2023-05-10T13:03:05;4.40;;;3.00;;
8857;SDS011;4465;50.904;4.696;2023-05-10T13:05:33;5.43;;;3.22;;
8857;SDS011;4465;50.904;4.696;2023-05-10T13:08:02;5.05;;;3.00;;
8857;SDS011;4465;50.904;4.696;2023-05-10T13:10:29;8.50;;;3.50;;
8857;SDS011;4465;50.904;4.696;2023-05-10T13:12:57;4.22;;;3.03;;
8857;SDS011;4465;50.904;4.696;2023-05-10T13:15:26;5.53;;;3.22;;
8857;SDS011;4465;50.904;4.696;2023-05-10T13:17:52;7.82;;;3.53;;
8857;SDS011;4465;50.904;4.696;2023-05-10T13:20:23;8.00;;;3.40;;
8857;SDS011;4465;50.904;4.696;2023-05-10T13:22:49;7.55;;;3.28;;
8857;SDS011;4465;50.904;4.696;2023-05-10T13:25:15;5.47;;;2.75;;
8857;SDS011;4465;50.904;4.696;2023-05-10T13:27:41;5.30;;;3.17;;
8857;SDS011;4465;50.904;4.696;2023-05-10T13:30:12;5.57;;;3.30;;
8857;SDS011;4465;50.904;4.696;2023-05-10T13:32:38;11.85;;;3.53;;
8857;SDS011;4465;50.904;4.696;2023-05-10T13:35:06;4.78;;;3.40;;
8857;SDS011;4465;50.904;4.696;2023-05-10T13:37:32;5.10;;;3.30;;
8857;SDS011;4465;50.904;4.696;2023-05-10T13:40:04;8.38;;;3.20;;
8857;SDS011;4465;50.904;4.696;2023-05-10T13:42:31;7.13;;;3.45;;
8857;SDS011;4465;50.904;4.696;2023-05-10T13:44:59;5.10;;;3.33;;
8857;SDS011;4465;50.904;4.696;2023-05-10T13:49:52;6.90;;;3.50;;
8857;SDS011;4465;50.904;4.696;2023-05-10T13:52:18;5.47;;;3.45;;
8857;SDS011;4465;50.904;4.696;2023-05-10T13:54:47;5.45;;;2.92;;
8857;SDS011;4465;50.904;4.696;2023-05-10T13:57:15;6.63;;;3.50;;
8857;SDS011;4465;50.904;4.696;2023-05-10T13:59:42;4.45;;;2.70;;
8857;SDS011;4465;50.904;4.696;2023-05-10T14:02:13;5.20;;;3.28;;
8857;SDS011;4465;50.904;4.696;2023-05-10T14:04:39;6.20;;;3.10;;
8857;SDS011;4465;50.904;4.696;2023-05-10T14:07:07;5.95;;;3.40;;
8857;SDS011;4465;50.904;4.696;2023-05-10T14:09:35;5.55;;;2.78;;
8857;SDS011;4465;50.904;4.696;2023-05-10T14:12:01;5.07;;;3.05;;
8857;SDS011;4465;50.904;4.696;2023-05-10T14:14:28;5.43;;;3.10;;
8857;SDS011;4465;50.904;4.696;2023-05-10T14:16:54;5.97;;;3.47;;
8857;SDS011;4465;50.904;4.696;2023-05-10T14:19:20;6.38;;;3.70;;
8857;SDS011;4465;50.904;4.696;2023-05-10T14:21:46;6.97;;;3.58;;
8857;SDS011;4465;50.904;4.696;2023-05-10T14:24:15;9.98;;;3.92;;
8857;SDS011;4465;50.904;4.696;2023-05-10T14:26:43;7.13;;;4.20;;
8857;SDS011;4465;50.904;4.696;2023-05-10T14:29:09;5.22;;;3.20;;
8857;SDS011;4465;50.904;4.696;2023-05-10T14:31:35;8.00;;;4.05;;
8857;SDS011;4465;50.904;4.696;2023-05-10T14:34:00;6.90;;;3.83;;
8857;SDS011;4465;50.904;4.696;2023-05-10T14:36:28;10.00;;;4.20;;
8857;SDS011;4465;50.904;4.696;2023-05-10T14:38:54;7.70;;;3.70;;
8857;SDS011;4465;50.904;4.696;2023-05-10T14:41:22;10.70;;;4.20;;
8857;SDS011;4465;50.904;4.696;2023-05-10T14:43:49;10.57;;;5.18;;
8857;SDS011;4465;50.904;4.696;2023-05-10T14:46:15;7.40;;;4.00;;
8857;SDS011;4465;50.904;4.696;2023-05-10T14:48:43;5.97;;;3.85;;
8857;SDS011;4465;50.904;4.696;2023-05-10T14:51:09;6.43;;;4.05;;
8857;SDS011;4465;50.904;4.696;2023-05-10T14:53:38;7.88;;;4.05;;
8857;SDS011;4465;50.904;4.696;2023-05-10T14:56:04;6.93;;;3.88;;
8857;SDS011;4465;50.904;4.696;2023-05-10T14:58:30;6.57;;;3.75;;
8857;SDS011;4465;50.904;4.696;2023-05-10T15:00:56;8.23;;;4.25;;
8857;SDS011;4465;50.904;4.696;2023-05-10T15:03:22;7.03;;;3.70;;
8857;SDS011;4465;50.904;4.696;2023-05-10T15:05:48;6.72;;;3.60;;
8857;SDS011;4465;50.904;4.696;2023-05-10T15:08:14;7.85;;;4.22;;
8857;SDS011;4465;50.904;4.696;2023-05-10T15:10:42;7.75;;;3.90;;
8857;SDS011;4465;50.904;4.696;2023-05-10T15:13:10;9.48;;;3.72;;
8857;SDS011;4465;50.904;4.696;2023-05-10T15:15:36;9.32;;;4.57;;
8857;SDS011;4465;50.904;4.696;2023-05-10T15:18:02;10.38;;;4.70;;
8857;SDS011;4465;50.904;4.696;2023-05-10T15:20:27;9.90;;;5.00;;
8857;SDS011;4465;50.904;4.696;2023-05-10T15:22:53;10.23;;;5.90;;
8857;SDS011;4465;50.904;4.696;2023-05-10T15:25:19;13.10;;;7.15;;
8857;SDS011;4465;50.904;4.696;2023-05-10T15:27:45;16.08;;;6.45;;
8857;SDS011;4465;50.904;4.696;2023-05-10T15:30:13;19.20;;;7.15;;
8857;SDS011;4465;50.904;4.696;2023-05-10T15:32:39;14.30;;;7.85;;
8857;SDS011;4465;50.904;4.696;2023-05-10T15:35:07;15.15;;;7.63;;
8857;SDS011;4465;50.904;4.696;2023-05-10T15:37:37;13.38;;;7.30;;
8857;SDS011;4465;50.904;4.696;2023-05-10T15:40:03;18.67;;;8.30;;
8857;SDS011;4465;50.904;4.696;2023-05-10T15:42:30;12.63;;;6.57;;
8857;SDS011;4465;50.904;4.696;2023-05-10T15:44:57;14.65;;;7.68;;
8857;SDS011;4465;50.904;4.696;2023-05-10T15:47:23;20.23;;;9.38;;
8857;SDS011;4465;50.904;4.696;2023-05-10T15:49:52;17.92;;;8.55;;
8857;SDS011;4465;50.904;4.696;2023-05-10T15:52:18;14.40;;;6.35;;
8857;SDS011;4465;50.904;4.696;2023-05-10T15:54:45;21.58;;;6.32;;
8857;SDS011;4465;50.904;4.696;2023-05-10T15:57:13;16.15;;;6.15;;
8857;SDS011;4465;50.904;4.696;2023-05-10T15:59:39;15.05;;;6.57;;